createdAt,value
2022-08-11T00:01:54.460Z,58.97
2022-08-11T00:05:01.551Z,59.35
2022-08-11T00:08:05.164Z,59.05
2022-08-11T00:11:10.787Z,59.24
2022-08-11T00:14:22.648Z,59.42
2022-08-11T00:17:32.917Z,59.39
2022-08-11T00:20:41.889Z,59.67
2022-08-11T00:23:47.414Z,59.83
2022-08-11T00:26:54.908Z,59.83
2022-08-11T00:29:58.349Z,60.10
2022-08-11T00:33:01.430Z,60.04
2022-08-11T00:36:06.191Z,60.17
2022-08-11T00:39:10.726Z,60.10
2022-08-11T00:42:40.650Z,60.26
2022-08-11T00:45:54.044Z,60.24
2022-08-11T00:49:25.548Z,60.62
2022-08-11T00:52:49.702Z,60.67
2022-08-11T00:55:56.172Z,60.67
2022-08-11T00:59:35.249Z,60.59
2022-08-11T01:03:28.494Z,60.68
2022-08-11T01:06:49.631Z,60.90
2022-08-11T01:10:06.964Z,61.26
2022-08-11T01:13:19.375Z,61.23
2022-08-11T01:16:50.151Z,61.57
2022-08-11T01:20:47.328Z,61.66
2022-08-11T01:24:11.027Z,61.52
2022-08-11T01:27:32.532Z,61.44
2022-08-11T01:30:44.056Z,61.53
2022-08-11T01:34:04.852Z,61.59
2022-08-11T01:37:44.920Z,62.00
2022-08-11T01:41:12.760Z,61.93
2022-08-11T01:44:44.806Z,61.94
2022-08-11T01:48:02.585Z,62.10
2022-08-11T01:51:30.298Z,62.36
2022-08-11T01:54:49.030Z,62.46
2022-08-11T01:58:13.432Z,62.39
2022-08-11T02:01:41.044Z,62.53
2022-08-11T02:05:11.978Z,62.73
2022-08-11T02:08:44.775Z,62.87
2022-08-11T02:11:58.485Z,62.66
2022-08-11T02:15:26.424Z,62.74
2022-08-11T02:18:54.911Z,63.06
2022-08-11T02:22:24.534Z,62.84
2022-08-11T02:25:41.514Z,62.92
2022-08-11T02:28:55.837Z,62.84
2022-08-11T02:32:38.252Z,62.92
2022-08-11T02:36:06.509Z,62.93
2022-08-11T02:39:19.065Z,62.73
2022-08-11T02:42:36.164Z,62.71
2022-08-11T02:46:18.629Z,62.76
2022-08-11T02:50:02.540Z,63.23
2022-08-11T02:53:19.821Z,63.34
2022-08-11T02:56:44.787Z,63.26
2022-08-11T02:59:51.054Z,63.17
2022-08-11T03:03:12.033Z,63.62
2022-08-11T03:06:30.178Z,63.65
2022-08-11T03:09:36.132Z,63.54
2022-08-11T03:13:25.615Z,63.76
2022-08-11T03:16:46.670Z,63.89
2022-08-11T03:20:03.398Z,64.11
2022-08-11T03:23:23.893Z,64.05
2022-08-11T03:26:44.408Z,64.15
2022-08-11T03:30:06.448Z,64.24
2022-08-11T03:33:43.716Z,64.26
2022-08-11T03:37:16.029Z,64.38
2022-08-11T03:42:03.452Z,64.55
2022-08-11T03:44:56.706Z,64.46
2022-08-11T03:48:21.294Z,64.59
2022-08-11T03:51:44.942Z,64.78
2022-08-11T03:55:21.184Z,64.96
2022-08-11T03:58:59.181Z,65.13
2022-08-11T04:02:17.206Z,65.16
2022-08-11T04:05:35.186Z,65.23
2022-08-11T04:09:10.051Z,65.26
2022-08-11T04:12:36.462Z,65.46
2022-08-11T04:16:11.788Z,65.55
2022-08-11T04:19:46.047Z,65.68
2022-08-11T04:23:03.654Z,65.53
2022-08-11T04:26:37.558Z,65.61
2022-08-11T04:30:05.595Z,65.69
2022-08-11T04:33:36.587Z,65.87
2022-08-11T04:37:32.250Z,66.06
2022-08-11T04:40:55.084Z,66.08
2022-08-11T04:44:32.843Z,66.18
2022-08-11T04:48:04.155Z,66.19
2022-08-11T04:51:31.800Z,66.36
2022-08-11T04:55:21.233Z,66.46
2022-08-11T04:58:48.636Z,66.59
2022-08-11T05:01:54.277Z,66.62
2022-08-11T05:05:24.917Z,66.84
2022-08-11T05:09:01.556Z,66.89
2022-08-11T05:12:36.863Z,67.23
2022-08-11T05:16:21.886Z,67.44
2022-08-11T05:19:43.460Z,67.47
2022-08-11T05:23:09.998Z,67.69
2022-08-11T05:26:47.145Z,67.88
2022-08-11T05:30:19.361Z,67.34
2022-08-11T05:33:49.845Z,67.68
2022-08-11T05:37:26.277Z,67.17
2022-08-11T05:40:51.303Z,67.29
2022-08-11T05:44:20.653Z,67.23
2022-08-11T05:47:45.030Z,66.98
2022-08-11T05:51:16.509Z,66.83
2022-08-11T05:54:38.885Z,66.97
2022-08-11T05:57:51.245Z,66.88
2022-08-11T06:00:55.126Z,66.17
2022-08-11T06:04:15.753Z,66.47
2022-08-11T06:07:26.998Z,66.01
2022-08-11T06:10:35.971Z,65.33
2022-08-11T06:13:45.307Z,64.82
2022-08-11T06:16:50.068Z,65.10
2022-08-11T06:20:07.096Z,64.97
2022-08-11T06:23:11.290Z,64.60
2022-08-11T06:26:15.574Z,64.40
2022-08-11T06:29:20.429Z,64.24
2022-08-11T06:32:45.733Z,64.53
2022-08-11T06:36:00.345Z,64.68
2022-08-11T06:39:16.439Z,63.76
2022-08-11T06:42:37.367Z,63.40
2022-08-11T06:46:04.543Z,63.67
2022-08-11T06:49:30.612Z,63.41
2022-08-11T06:52:38.479Z,63.02
2022-08-11T06:56:04.244Z,62.02
2022-08-11T06:59:28.374Z,62.26
2022-08-11T07:02:37.105Z,61.62
2022-08-11T07:05:46.066Z,61.19
2022-08-11T07:09:33.283Z,61.37
2022-08-11T07:13:01.432Z,60.40
2022-08-11T07:16:11.034Z,60.01
2022-08-11T07:19:42.393Z,59.25
2022-08-11T07:23:14.618Z,60.42
2022-08-11T07:26:39.645Z,60.13
2022-08-11T07:29:46.041Z,58.80
2022-08-11T07:32:55.650Z,58.38
2022-08-11T07:36:02.087Z,57.97
2022-08-11T07:39:15.366Z,56.65
2022-08-11T07:42:23.328Z,56.91
2022-08-11T07:45:46.080Z,56.25
2022-08-11T07:49:08.700Z,56.27
2022-08-11T07:52:30.809Z,56.10
2022-08-11T07:55:50.213Z,55.11
2022-08-11T07:59:15.477Z,54.36
2022-08-11T08:02:38.803Z,53.58
2022-08-11T08:06:01.439Z,53.49
2022-08-11T08:09:25.070Z,52.69
2022-08-11T08:12:48.119Z,52.59
2022-08-11T08:16:11.702Z,52.51
2022-08-11T08:19:17.387Z,52.81
2022-08-11T08:22:38.367Z,52.66
2022-08-11T08:25:45.631Z,53.24
2022-08-11T08:28:48.806Z,53.37
2022-08-11T08:31:54.863Z,52.99
2022-08-11T08:34:59.816Z,52.88
2022-08-11T08:38:03.908Z,52.94
2022-08-11T08:41:08.048Z,52.52
2022-08-11T08:44:37.194Z,52.67
2022-08-11T08:47:52.960Z,53.85
2022-08-11T08:51:29.222Z,54.14
2022-08-11T08:54:56.463Z,53.17
2022-08-11T08:58:01.107Z,52.35
2022-08-11T09:01:05.653Z,51.45
2022-08-11T09:04:11.838Z,50.59
2022-08-11T09:07:18.436Z,50.13
2022-08-11T09:10:21.717Z,49.78
2022-08-11T09:13:24.913Z,49.28
2022-08-11T09:16:28.131Z,48.88
2022-08-11T09:19:32.144Z,48.96
2022-08-11T09:23:24.330Z,49.26
2022-08-11T09:26:38.536Z,49.08
2022-08-11T09:29:41.346Z,49.58
2022-08-11T09:32:44.657Z,49.33
2022-08-11T09:35:51.386Z,47.76
2022-08-11T09:39:13.199Z,46.33
2022-08-11T09:42:23.407Z,46.51
2022-08-11T09:45:28.484Z,47.07
2022-08-11T09:48:46.236Z,46.79
2022-08-11T09:52:02.271Z,46.40
2022-08-11T09:55:12.344Z,47.02
2022-08-11T09:58:41.756Z,46.69
2022-08-11T10:01:49.296Z,47.76
2022-08-11T10:04:54.387Z,47.24
2022-08-11T10:07:58.637Z,46.21
2022-08-11T10:11:06.850Z,46.06
2022-08-11T10:14:33.406Z,46.39
2022-08-11T10:18:03.047Z,46.55
2022-08-11T10:21:14.678Z,46.13
2022-08-11T10:24:36.874Z,45.69
2022-08-11T10:28:32.810Z,46.23
2022-08-11T10:31:30.510Z,45.20
2022-08-11T10:34:54.495Z,44.33
2022-08-11T10:38:07.575Z,43.35
2022-08-11T10:41:32.764Z,43.61
2022-08-11T10:44:47.821Z,43.98
2022-08-11T10:47:54.519Z,44.54
2022-08-11T10:51:14.168Z,44.15
2022-08-11T10:54:36.331Z,44.56
2022-08-11T10:58:04.299Z,43.58
2022-08-11T11:01:09.829Z,43.03
2022-08-11T11:04:12.775Z,43.49
2022-08-11T11:07:24.983Z,44.02
2022-08-11T11:10:28.230Z,44.39
2022-08-11T11:13:55.231Z,44.25
2022-08-11T11:17:14.155Z,46.04
2022-08-11T11:20:36.382Z,46.60
2022-08-11T11:24:00.163Z,44.70
2022-08-11T11:27:22.241Z,45.06
2022-08-11T11:30:33.170Z,43.49
2022-08-11T11:34:12.038Z,43.63
2022-08-11T11:37:19.247Z,43.61
2022-08-11T11:40:28.748Z,43.88
2022-08-11T11:43:37.149Z,45.05
2022-08-11T11:46:41.499Z,45.99
2022-08-11T11:49:46.163Z,45.88
2022-08-11T11:52:50.160Z,47.23
2022-08-11T11:55:53.616Z,44.88
2022-08-11T11:59:16.112Z,44.88
2022-08-11T12:02:19.666Z,44.05
2022-08-11T12:05:22.850Z,43.43
2022-08-11T12:08:27.889Z,45.26
2022-08-11T12:11:50.574Z,44.82
2022-08-11T12:14:54.831Z,43.89
2022-08-11T12:17:59.510Z,44.94
2022-08-11T12:21:04.110Z,43.46
2022-08-11T12:24:29.156Z,43.04
2022-08-11T12:27:32.922Z,44.60
2022-08-11T12:30:36.752Z,44.50
2022-08-11T12:33:44.616Z,43.87
2022-08-11T12:36:57.782Z,44.65
2022-08-11T12:40:49.553Z,42.92
2022-08-11T12:44:06.791Z,43.52
2022-08-11T12:47:11.190Z,42.43
2022-08-11T12:50:40.809Z,42.26
2022-08-11T12:53:53.193Z,41.85
2022-08-11T12:57:36.204Z,41.81
2022-08-11T13:00:59.182Z,41.80
2022-08-11T13:04:21.551Z,41.66
2022-08-11T13:07:27.168Z,40.35
2022-08-11T13:11:09.176Z,40.68
2022-08-11T13:14:15.343Z,40.58
2022-08-11T13:17:21.939Z,40.27
2022-08-11T13:20:48.498Z,39.51
2022-08-11T13:23:59.536Z,39.02
2022-08-11T13:27:08.107Z,38.37
2022-08-11T13:30:31.819Z,37.81
2022-08-11T13:33:42.214Z,38.48
2022-08-11T13:36:46.023Z,40.08
2022-08-11T13:39:49.307Z,39.84
2022-08-11T13:42:53.579Z,38.48
2022-08-11T13:46:16.952Z,38.32
2022-08-11T13:49:21.317Z,39.31
2022-08-11T13:58:08.910Z,41.12
2022-08-11T14:02:47.917Z,41.29
2022-08-11T14:05:53.916Z,41.06
2022-08-11T14:08:58.056Z,40.41
2022-08-11T14:12:25.872Z,41.45
2022-08-11T14:15:34.105Z,41.62
2022-08-11T14:18:43.152Z,44.14
2022-08-11T14:22:07.815Z,46.49
2022-08-11T14:25:13.073Z,48.00
2022-08-11T14:28:32.981Z,49.28
2022-08-11T14:31:40.689Z,50.89
2022-08-11T14:34:45.180Z,52.05
2022-08-11T14:37:48.568Z,52.59
2022-08-11T14:41:11.337Z,53.15
2022-08-11T14:44:33.514Z,54.33
2022-08-11T14:47:39.390Z,55.61
2022-08-11T14:50:42.668Z,56.65
2022-08-11T14:53:58.359Z,57.38
2022-08-11T14:57:03.332Z,57.85
2022-08-11T15:00:15.474Z,58.74
2022-08-11T15:03:19.493Z,59.38
2022-08-11T15:06:22.769Z,60.35
2022-08-11T15:09:25.926Z,60.75
2022-08-11T15:12:33.192Z,61.32
2022-08-11T15:15:56.017Z,61.82
2022-08-11T15:18:59.900Z,62.11
2022-08-11T15:22:26.069Z,62.66
2022-08-11T15:25:34.605Z,62.85
2022-08-11T15:29:02.856Z,63.91
2022-08-11T15:32:20.457Z,64.30
2022-08-11T15:35:42.478Z,64.65
2022-08-11T15:38:58.086Z,65.14
2022-08-11T15:42:33.555Z,65.28
2022-08-11T15:45:52.029Z,65.38
2022-08-11T15:49:07.452Z,65.91
2022-08-11T15:52:16.181Z,66.58
2022-08-11T15:55:21.437Z,66.96
2022-08-11T15:58:47.875Z,66.28
2022-08-11T16:02:35.888Z,65.90
2022-08-11T16:05:46.721Z,66.19
2022-08-11T16:08:59.643Z,66.18
2022-08-11T16:12:05.173Z,66.32
2022-08-11T16:15:29.505Z,66.65
2022-08-11T16:18:41.998Z,66.89
2022-08-11T16:21:46.132Z,67.35
2022-08-11T16:27:03.581Z,67.73
2022-08-11T16:28:17.005Z,68.11
2022-08-11T16:31:22.158Z,68.46
2022-08-11T16:34:44.463Z,68.72
2022-08-11T16:38:06.366Z,68.74
2022-08-11T16:41:16.085Z,67.90
2022-08-11T16:44:39.020Z,68.67
2022-08-11T16:48:03.554Z,69.01
2022-08-11T16:51:10.582Z,69.32
2022-08-11T16:54:14.076Z,69.71
2022-08-11T16:57:44.191Z,70.07
2022-08-11T17:00:49.925Z,70.21
2022-08-11T17:04:31.203Z,70.44
2022-08-11T17:07:57.195Z,70.43
2022-08-11T17:11:24.466Z,70.47
2022-08-11T17:14:39.890Z,70.64
2022-08-11T17:17:43.309Z,70.67
2022-08-11T17:20:46.602Z,70.88
2022-08-11T17:23:55.176Z,70.93
2022-08-11T17:27:00.935Z,71.06
2022-08-11T17:30:09.606Z,71.21
2022-08-11T17:33:32.551Z,71.29
2022-08-11T17:36:41.526Z,71.26
2022-08-11T17:39:49.481Z,71.26
2022-08-11T17:43:12.915Z,71.32
2022-08-11T17:46:36.995Z,71.28
2022-08-11T17:49:41.011Z,71.11
2022-08-11T17:53:04.592Z,71.07
2022-08-11T17:56:27.799Z,71.01
2022-08-11T17:59:51.844Z,70.80
2022-08-11T18:03:14.840Z,70.75
2022-08-11T18:06:19.422Z,70.71
2022-08-11T18:09:42.942Z,70.77
2022-08-11T18:13:07.170Z,70.81
2022-08-11T18:16:28.986Z,70.91
2022-08-11T18:19:50.465Z,71.03
2022-08-11T18:23:15.188Z,71.19
2022-08-11T18:26:42.373Z,71.10
2022-08-11T18:30:07.607Z,71.04
2022-08-11T18:33:56.695Z,71.09
2022-08-11T18:37:29.579Z,71.01
2022-08-11T18:40:54.287Z,71.15
2022-08-11T18:44:20.943Z,71.10
2022-08-11T18:47:45.097Z,71.01
2022-08-11T18:51:31.247Z,70.96
2022-08-11T18:54:59.962Z,70.84
2022-08-11T18:58:26.201Z,70.90
2022-08-11T19:01:50.393Z,71.11
2022-08-11T19:05:14.180Z,71.11
2022-08-11T19:08:38.355Z,71.24
2022-08-11T19:12:00.436Z,71.23
2022-08-11T19:15:24.716Z,71.26
2022-08-11T19:18:48.326Z,71.36
2022-08-11T19:22:10.935Z,71.37
2022-08-11T19:25:34.582Z,71.29
2022-08-11T19:29:00.828Z,71.27
2022-08-11T19:32:23.638Z,71.21
2022-08-11T19:35:46.444Z,71.06
2022-08-11T19:39:10.244Z,71.00
2022-08-11T19:42:34.570Z,71.07
2022-08-11T19:45:58.591Z,71.30
2022-08-11T19:49:21.648Z,71.48
2022-08-11T19:52:45.095Z,71.60
2022-08-11T19:56:16.099Z,71.66
2022-08-11T19:59:54.055Z,71.81
2022-08-11T20:03:22.261Z,71.80
2022-08-11T20:11:38.681Z,71.40
2022-08-11T20:15:02.843Z,71.25
2022-08-11T20:18:29.046Z,71.18
2022-08-11T20:21:53.576Z,70.92
2022-08-11T20:25:18.361Z,70.82
2022-08-11T20:28:40.058Z,70.77
2022-08-11T20:32:04.215Z,70.78
2022-08-11T20:35:28.582Z,70.74
2022-08-11T20:38:53.451Z,70.53
2022-08-11T20:42:17.181Z,70.45
2022-08-11T20:45:55.180Z,70.41
2022-08-11T20:49:21.262Z,70.30
2022-08-11T20:52:48.002Z,70.36
2022-08-11T20:56:10.665Z,70.15
2022-08-11T20:59:49.370Z,69.98
2022-08-11T21:03:16.077Z,69.89
2022-08-11T21:07:00.083Z,69.82
2022-08-11T21:10:27.758Z,69.79
2022-08-11T21:13:56.083Z,69.71
2022-08-11T21:17:27.078Z,69.75
2022-08-11T21:20:51.304Z,69.66
2022-08-11T21:24:16.219Z,69.59
2022-08-11T21:27:39.913Z,69.62
2022-08-11T21:31:02.798Z,69.65
2022-08-11T21:34:26.507Z,69.66
2022-08-11T21:37:50.309Z,69.81
2022-08-11T21:41:13.884Z,69.77
2022-08-11T21:44:36.864Z,69.78
2022-08-11T21:48:01.100Z,69.69
2022-08-11T21:51:23.468Z,69.57
2022-08-11T21:54:45.922Z,69.47
2022-08-11T21:58:07.952Z,69.44
2022-08-11T22:01:30.875Z,69.40
2022-08-11T22:04:56.362Z,69.30
2022-08-11T22:08:17.908Z,69.31
2022-08-11T22:11:39.497Z,69.28
2022-08-11T22:15:01.234Z,69.15
2022-08-11T22:18:23.237Z,69.30
2022-08-11T22:22:03.315Z,69.42
2022-08-11T22:25:27.375Z,69.27
2022-08-11T22:29:00.164Z,69.26
2022-08-11T22:32:21.489Z,69.37
2022-08-11T22:35:43.324Z,69.38
2022-08-11T22:39:06.975Z,69.31
2022-08-11T22:42:33.498Z,69.31
2022-08-11T22:45:55.395Z,69.38
2022-08-11T22:49:17.841Z,69.71
2022-08-11T22:52:40.483Z,69.70
2022-08-11T22:56:01.984Z,69.56
2022-08-11T22:59:26.275Z,69.46
2022-08-11T23:02:48.004Z,69.59
2022-08-11T23:06:10.064Z,69.74
2022-08-11T23:09:32.061Z,69.75
2022-08-11T23:12:54.965Z,69.90
2022-08-11T23:16:17.458Z,70.12
2022-08-11T23:20:01.719Z,69.98
2022-08-11T23:23:21.267Z,69.80
2022-08-11T23:26:47.180Z,69.84
2022-08-11T23:30:12.348Z,69.92
2022-08-11T23:33:36.218Z,69.94
2022-08-11T23:36:58.118Z,70.02
2022-08-11T23:40:20.147Z,70.21
2022-08-11T23:43:44.573Z,70.13
2022-08-11T23:47:08.444Z,70.21
2022-08-11T23:50:30.573Z,69.99
2022-08-11T23:53:52.492Z,69.96
2022-08-11T23:57:14.482Z,70.02
